Time;durP1;ratioP1;P1;durP2;ratioP2;P2;SDS_P1;SDS_P2;PMS_P1;PMS_P2;Temp;Humidity;BMP_temperature;BMP_pressure;BME280_temperature;BME280_humidity;BME280_pressure;Samples;Min_cycle;Max_cycle;Signal;HPM_P1;HPM_P2
2024/04/20 00:00:18;;;;;;;4.87;1.70;;;4.30;99.90;;;;;;5399975;26;21251;-85
2024/04/20 00:02:44;;;;;;;5.70;1.87;;;4.30;99.90;;;;;;5401996;26;20040;-84
2024/04/20 00:05:10;;;;;;;3.57;1.63;;;4.30;99.90;;;;;;5400574;26;20007;-85
2024/04/20 00:07:36;;;;;;;3.13;1.60;;;4.30;99.90;;;;;;5400383;26;20008;-85
2024/04/20 00:10:02;;;;;;;4.23;1.73;;;4.30;99.90;;;;;;5402317;26;20010;-85
2024/04/20 00:12:29;;;;;;;6.20;2.10;;;4.20;99.90;;;;;;5400133;26;20072;-85
2024/04/20 00:14:54;;;;;;;5.07;1.70;;;4.20;99.90;;;;;;5368791;26;20003;-84
2024/04/20 00:17:20;;;;;;;3.77;1.50;;;4.10;99.90;;;;;;5400108;26;20053;-85
2024/04/20 00:19:45;;;;;;;2.17;1.50;;;4.10;99.90;;;;;;5400194;26;20022;-85
2024/04/20 00:22:12;;;;;;;2.77;1.60;;;4.00;99.90;;;;;;5398826;26;20451;-84
2024/04/20 00:24:38;;;;;;;1.23;1.13;;;4.00;99.90;;;;;;5400236;26;20014;-85
2024/04/20 00:27:05;;;;;;;3.47;1.57;;;3.90;99.90;;;;;;5399412;26;19996;-84
2024/04/20 00:29:31;;;;;;;2.40;1.30;;;4.00;99.90;;;;;;5401776;26;20010;-85
2024/04/20 00:31:57;;;;;;;2.13;1.20;;;3.90;99.90;;;;;;5400558;26;20007;-85
2024/04/20 00:34:22;;;;;;;1.50;1.10;;;3.80;99.90;;;;;;5401851;26;20381;-84
2024/04/20 00:36:51;;;;;;;3.00;1.20;;;3.80;99.90;;;;;;5399515;26;20038;-84
2024/04/20 00:39:17;;;;;;;2.77;1.20;;;3.70;99.90;;;;;;5401277;26;20106;-84
2024/04/20 00:41:49;;;;;;;1.37;1.10;;;3.70;99.90;;;;;;5399888;26;20010;-84
2024/04/20 00:44:15;;;;;;;1.70;0.97;;;3.60;99.90;;;;;;5367625;26;20008;-85
2024/04/20 00:46:43;;;;;;;1.83;1.10;;;3.60;99.90;;;;;;5402056;26;20014;-84
2024/04/20 00:49:10;;;;;;;3.03;1.07;;;3.70;99.90;;;;;;5401741;26;20005;-85
2024/04/20 00:51:36;;;;;;;1.80;1.23;;;3.60;99.90;;;;;;5400884;26;20060;-85
2024/04/20 00:54:03;;;;;;;2.10;1.20;;;3.60;99.90;;;;;;5369385;26;20359;-84
2024/04/20 00:56:30;;;;;;;2.17;1.30;;;3.50;99.90;;;;;;5400398;26;20479;-85
2024/04/20 00:58:57;;;;;;;2.00;1.30;;;3.50;99.90;;;;;;5400482;26;20061;-84
2024/04/20 01:01:25;;;;;;;1.93;1.60;;;3.50;99.90;;;;;;5401354;26;20003;-85
2024/04/20 01:03:51;;;;;;;1.97;1.33;;;3.50;99.90;;;;;;5403178;26;20016;-85
2024/04/20 01:06:16;;;;;;;2.07;1.30;;;3.40;99.90;;;;;;5400263;26;20087;-84
2024/04/20 01:08:42;;;;;;;2.70;1.30;;;3.40;99.90;;;;;;5404131;26;20008;-84
2024/04/20 01:11:08;;;;;;;2.63;1.47;;;3.40;99.90;;;;;;5402358;26;20468;-84
2024/04/20 01:13:33;;;;;;;2.50;1.40;;;3.30;99.90;;;;;;5403204;26;20363;-85
2024/04/20 01:15:59;;;;;;;3.23;1.60;;;3.30;99.90;;;;;;5401327;26;20011;-85
2024/04/20 01:18:25;;;;;;;2.50;1.63;;;3.20;99.90;;;;;;5402813;26;20000;-85
2024/04/20 01:20:50;;;;;;;2.47;1.67;;;3.20;99.90;;;;;;5403331;26;20007;-84
2024/04/20 01:23:16;;;;;;;2.83;1.60;;;3.20;99.90;;;;;;5403635;26;20043;-84
2024/04/20 01:25:51;;;;;;;2.53;1.40;;;3.20;99.90;;;;;;5402711;26;20016;-84
2024/04/20 01:28:21;;;;;;;2.78;1.45;;;3.20;99.90;;;;;;5370339;26;20018;-84
2024/04/20 01:30:48;;;;;;;3.23;1.60;;;3.10;99.90;;;;;;5395516;26;20095;-84
2024/04/20 01:33:13;;;;;;;3.70;1.50;;;3.00;99.90;;;;;;5402885;26;20011;-84
2024/04/20 01:35:40;;;;;;;4.67;1.70;;;3.10;99.90;;;;;;5401789;26;20008;-84
2024/04/20 01:38:07;;;;;;;3.10;1.50;;;3.10;99.90;;;;;;5402067;26;20031;-84
2024/04/20 01:40:32;;;;;;;3.67;2.80;;;3.00;99.90;;;;;;5402664;26;20011;-84
2024/04/20 01:42:58;;;;;;;2.20;1.70;;;3.00;99.90;;;;;;5401497;26;20014;-85
2024/04/20 01:45:24;;;;;;;3.57;1.60;;;2.90;99.90;;;;;;5400271;26;20400;-84
2024/04/20 01:47:49;;;;;;;3.67;1.37;;;2.90;99.90;;;;;;5402912;26;20011;-84
2024/04/20 01:50:16;;;;;;;2.60;1.60;;;3.00;99.90;;;;;;5402067;26;20006;-84
2024/04/20 01:52:42;;;;;;;2.87;1.70;;;2.90;99.90;;;;;;5368392;26;20041;-84
2024/04/20 01:55:08;;;;;;;6.00;1.60;;;2.90;99.90;;;;;;5402180;26;20012;-85
2024/04/20 01:57:34;;;;;;;4.27;1.50;;;2.90;99.90;;;;;;5403278;26;20528;-85
2024/04/20 01:59:59;;;;;;;3.83;1.73;;;2.90;99.90;;;;;;5403354;26;20019;-85
2024/04/20 02:02:25;;;;;;;3.00;1.50;;;3.00;99.90;;;;;;5401873;26;20018;-83
2024/04/20 02:04:50;;;;;;;3.17;1.63;;;3.00;99.90;;;;;;5403442;26;19999;-84
2024/04/20 02:07:16;;;;;;;4.63;1.87;;;3.00;99.90;;;;;;5400835;26;20799;-85
2024/04/20 02:09:44;;;;;;;5.77;1.97;;;3.10;99.90;;;;;;5404006;26;20551;-85
2024/04/20 02:12:13;;;;;;;5.00;2.20;;;3.10;99.90;;;;;;5403995;26;20015;-84
2024/04/20 02:14:38;;;;;;;4.83;1.60;;;3.10;99.90;;;;;;5400900;26;20003;-85
2024/04/20 02:17:04;;;;;;;4.57;1.63;;;3.10;99.90;;;;;;5402468;26;20005;-85
2024/04/20 02:19:30;;;;;;;4.23;1.80;;;3.10;99.90;;;;;;5370262;26;20000;-85
2024/04/20 02:21:55;;;;;;;5.33;1.80;;;3.20;99.90;;;;;;5366201;26;20036;-84
2024/04/20 02:24:21;;;;;;;4.70;1.67;;;3.10;99.90;;;;;;5401602;26;20007;-84
2024/04/20 02:26:46;;;;;;;4.80;1.90;;;3.10;99.90;;;;;;5400614;26;20008;-84
2024/04/20 02:29:12;;;;;;;4.30;1.77;;;3.20;99.90;;;;;;5399708;26;20337;-84
2024/04/20 02:31:38;;;;;;;4.27;1.80;;;3.20;99.90;;;;;;5369399;26;20020;-84
2024/04/20 02:34:03;;;;;;;5.10;1.80;;;3.10;99.90;;;;;;5368831;26;20028;-84
2024/04/20 02:36:30;;;;;;;6.57;2.73;;;3.20;99.90;;;;;;5398558;26;21407;-84
2024/04/20 02:38:56;;;;;;;5.37;2.30;;;3.20;99.90;;;;;;5401962;26;19996;-84
2024/04/20 02:41:22;;;;;;;6.07;1.70;;;3.20;99.90;;;;;;5398482;26;20050;-85
2024/04/20 02:43:48;;;;;;;8.63;2.47;;;3.20;99.90;;;;;;5401799;26;20027;-84
2024/04/20 02:46:13;;;;;;;4.13;1.80;;;3.20;99.90;;;;;;5402873;26;20004;-84
2024/04/20 02:48:39;;;;;;;4.33;1.90;;;3.20;99.90;;;;;;5402211;26;20045;-85
2024/04/20 02:51:05;;;;;;;3.90;1.90;;;3.20;99.90;;;;;;5401313;26;20000;-84
2024/04/20 02:53:30;;;;;;;3.83;1.90;;;3.20;99.90;;;;;;5403029;26;21345;-85
2024/04/20 02:55:56;;;;;;;7.20;2.17;;;3.30;99.90;;;;;;5400917;26;20076;-84
2024/04/20 02:58:23;;;;;;;4.23;2.03;;;3.30;99.90;;;;;;5401678;26;20027;-84
2024/04/20 03:01:00;;;;;;;9.37;2.30;;;3.30;99.90;;;;;;5400923;26;20053;-84
2024/04/20 03:03:31;;;;;;;5.10;2.03;;;3.30;99.90;;;;;;5368218;26;20474;-84
2024/04/20 03:05:57;;;;;;;6.70;2.30;;;3.30;99.90;;;;;;5400684;26;20000;-84
2024/04/20 03:08:23;;;;;;;5.80;2.00;;;3.30;99.90;;;;;;5401673;26;20012;-84
2024/04/20 03:10:49;;;;;;;5.83;2.07;;;3.30;99.90;;;;;;5401528;26;20345;-84
2024/04/20 03:13:14;;;;;;;3.50;1.97;;;3.40;99.90;;;;;;5398633;26;20015;-84
2024/04/20 03:15:40;;;;;;;4.70;1.87;;;3.40;99.90;;;;;;5399519;26;20007;-84
2024/04/20 03:18:06;;;;;;;4.93;2.00;;;3.40;99.90;;;;;;5401164;26;20008;-84
2024/04/20 03:20:32;;;;;;;8.43;2.20;;;3.40;99.90;;;;;;5400477;26;20079;-84
2024/04/20 03:22:57;;;;;;;4.63;2.03;;;3.40;99.90;;;;;;5402061;26;20000;-84
2024/04/20 03:25:23;;;;;;;6.33;2.90;;;3.40;99.90;;;;;;5400926;26;20003;-84
2024/04/20 03:27:49;;;;;;;5.30;2.27;;;3.40;99.90;;;;;;5401547;26;20004;-84
2024/04/20 03:30:15;;;;;;;6.30;2.07;;;3.40;99.90;;;;;;5399369;26;20000;-84
2024/04/20 03:32:41;;;;;;;6.87;1.97;;;3.40;99.90;;;;;;5402538;26;20110;-85
2024/04/20 03:35:06;;;;;;;5.90;2.10;;;3.40;99.90;;;;;;5400590;26;19995;-84
2024/04/20 03:37:32;;;;;;;3.63;1.70;;;3.40;99.90;;;;;;5368228;26;20012;-84
2024/04/20 03:39:58;;;;;;;4.60;2.30;;;3.40;99.90;;;;;;5401458;26;20004;-84
2024/04/20 03:42:27;;;;;;;5.23;2.17;;;3.40;99.90;;;;;;5368462;26;20008;-84
2024/04/20 03:44:53;;;;;;;4.67;2.13;;;3.50;99.90;;;;;;5401208;26;20550;-84
2024/04/20 03:47:19;;;;;;;5.00;2.20;;;3.50;99.90;;;;;;5399645;26;20088;-84
2024/04/20 03:49:45;;;;;;;7.30;2.07;;;3.50;99.90;;;;;;5400390;26;20054;-84
2024/04/20 03:52:11;;;;;;;3.80;2.20;;;3.50;99.90;;;;;;5400616;26;20003;-83
2024/04/20 03:54:36;;;;;;;4.90;1.97;;;3.50;99.90;;;;;;5402414;26;20012;-83
2024/04/20 03:57:02;;;;;;;4.93;2.20;;;3.50;99.90;;;;;;5402794;26;20014;-84
2024/04/20 03:59:28;;;;;;;5.03;1.90;;;3.40;99.90;;;;;;5368113;26;20007;-84
2024/04/20 04:01:53;;;;;;;2.80;1.87;;;3.40;99.90;;;;;;5398140;26;20592;-84
2024/04/20 04:04:19;;;;;;;4.40;1.77;;;3.50;99.90;;;;;;5399571;26;20049;-84
2024/04/20 04:06:44;;;;;;;5.43;2.30;;;3.40;99.90;;;;;;5399963;26;20007;-84
2024/04/20 04:09:10;;;;;;;6.27;1.97;;;3.50;99.90;;;;;;5400604;26;20041;-85
2024/04/20 04:11:35;;;;;;;6.70;2.27;;;3.50;99.90;;;;;;5402486;26;20000;-84
2024/04/20 04:14:01;;;;;;;5.73;2.37;;;3.50;99.90;;;;;;5399905;26;20004;-84
2024/04/20 04:16:27;;;;;;;5.53;2.00;;;3.50;99.90;;;;;;5399497;26;20023;-84
2024/04/20 04:18:52;;;;;;;7.33;2.30;;;3.50;99.90;;;;;;5400918;26;20022;-85
2024/04/20 04:21:18;;;;;;;4.87;2.20;;;3.50;99.90;;;;;;5391613;26;20023;-76
2024/04/20 04:23:43;;;;;;;5.50;2.33;;;3.50;99.90;;;;;;5394584;26;20046;-83
2024/04/20 04:26:10;;;;;;;3.97;2.10;;;3.50;99.90;;;;;;5364445;26;20060;-83
2024/04/20 04:28:35;;;;;;;6.23;2.60;;;3.50;99.90;;;;;;5399522;26;20007;-84
2024/04/20 04:31:01;;;;;;;6.57;2.50;;;3.60;99.90;;;;;;5398726;26;20003;-84
2024/04/20 04:33:27;;;;;;;4.20;2.47;;;3.50;99.90;;;;;;5396128;26;19992;-84
2024/04/20 04:35:57;;;;;;;3.93;2.03;;;3.60;99.90;;;;;;5396309;26;20051;-85
2024/04/20 04:38:23;;;;;;;6.20;2.20;;;3.60;99.90;;;;;;5400502;26;20007;-83
2024/04/20 04:40:48;;;;;;;3.80;2.53;;;3.60;99.90;;;;;;5399338;26;20007;-84
2024/04/20 04:43:14;;;;;;;5.70;2.47;;;3.60;99.90;;;;;;5400131;26;19999;-84
2024/04/20 04:45:40;;;;;;;5.00;2.20;;;3.70;99.90;;;;;;5396934;26;20790;-84
2024/04/20 04:48:06;;;;;;;6.50;2.33;;;3.70;99.90;;;;;;5400439;26;20015;-83
2024/04/20 04:50:31;;;;;;;6.00;2.30;;;3.70;99.90;;;;;;5367679;26;20319;-83
2024/04/20 04:52:59;;;;;;;5.13;2.00;;;3.70;99.90;;;;;;5398840;26;20021;-84
2024/04/20 04:55:25;;;;;;;3.27;2.37;;;3.80;99.90;;;;;;5399337;26;20008;-85
2024/04/20 04:57:50;;;;;;;5.83;2.60;;;3.80;99.90;;;;;;5400991;26;20014;-85
2024/04/20 05:00:16;;;;;;;8.10;2.80;;;3.80;99.90;;;;;;5399342;26;20086;-84
2024/04/20 05:02:41;;;;;;;5.57;2.80;;;3.70;99.90;;;;;;5368755;26;20011;-85
2024/04/20 05:05:07;;;;;;;5.87;2.80;;;3.70;99.90;;;;;;5367647;26;20010;-86
2024/04/20 05:07:33;;;;;;;6.17;2.40;;;3.70;99.90;;;;;;5399302;26;20046;-85
2024/04/20 05:09:58;;;;;;;4.13;2.50;;;3.70;99.90;;;;;;5400543;26;20078;-85
2024/04/20 05:12:24;;;;;;;5.47;2.80;;;3.70;99.90;;;;;;5399355;26;20018;-85
2024/04/20 05:14:51;;;;;;;5.83;2.60;;;3.70;99.90;;;;;;5399394;26;20022;-85
2024/04/20 05:17:17;;;;;;;5.43;2.83;;;3.70;99.90;;;;;;5400815;26;20007;-85
2024/04/20 05:19:42;;;;;;;8.13;2.90;;;3.70;99.90;;;;;;5368413;26;20019;-85
2024/04/20 05:22:08;;;;;;;6.57;3.43;;;3.70;99.90;;;;;;5399972;26;19996;-85
2024/04/20 05:24:33;;;;;;;6.70;3.00;;;3.70;99.90;;;;;;5400340;26;21110;-85
2024/04/20 05:26:59;;;;;;;6.57;3.03;;;3.70;99.90;;;;;;5399414;26;20088;-85
2024/04/20 05:29:24;;;;;;;6.63;2.67;;;3.70;99.90;;;;;;5368030;26;19996;-86
2024/04/20 05:31:50;;;;;;;5.37;2.90;;;3.70;99.90;;;;;;5401003;26;20039;-85
2024/04/20 05:34:16;;;;;;;4.50;2.97;;;3.80;99.90;;;;;;5366884;26;20398;-85
2024/04/20 05:36:42;;;;;;;6.47;3.20;;;3.80;99.90;;;;;;5397627;26;20470;-84
2024/04/20 05:39:15;;;;;;;4.50;2.90;;;3.90;99.90;;;;;;5368510;26;20007;-86
2024/04/20 05:41:41;;;;;;;7.50;3.00;;;3.90;99.90;;;;;;5366235;26;20004;-85
2024/04/20 05:44:07;;;;;;;7.40;3.07;;;4.00;99.90;;;;;;5400645;26;20011;-86
2024/04/20 05:46:33;;;;;;;6.40;4.17;;;4.00;99.90;;;;;;5399112;26;20000;-87
2024/04/20 05:48:58;;;;;;;5.80;3.27;;;4.00;99.90;;;;;;5366223;26;20008;-86
2024/04/20 05:51:24;;;;;;;8.07;3.60;;;4.00;99.90;;;;;;5402389;26;20787;-86
2024/04/20 05:53:50;;;;;;;7.00;2.87;;;4.10;99.90;;;;;;5401775;26;20110;-87
2024/04/20 05:56:16;;;;;;;4.93;2.80;;;4.20;99.90;;;;;;5402194;26;20018;-87
2024/04/20 05:58:41;;;;;;;5.27;2.63;;;4.20;99.90;;;;;;5402060;26;20014;-86
2024/04/20 06:01:07;;;;;;;5.63;2.60;;;4.30;99.90;;;;;;5399532;26;20055;-86
2024/04/20 06:03:33;;;;;;;5.27;2.27;;;4.30;99.90;;;;;;5370450;26;20022;-87
2024/04/20 06:05:59;;;;;;;4.50;2.73;;;4.30;99.90;;;;;;5400143;26;20081;-87
2024/04/20 06:08:24;;;;;;;7.40;2.77;;;4.30;99.90;;;;;;5400514;26;20012;-85
2024/04/20 06:10:58;;;;;;;5.57;2.20;;;4.30;99.90;;;;;;5404151;26;20018;-84
2024/04/20 06:13:24;;;;;;;7.13;2.60;;;4.30;99.90;;;;;;5400732;26;20464;-85
2024/04/20 06:15:49;;;;;;;4.50;2.50;;;4.40;99.90;;;;;;5402740;26;20019;-85
2024/04/20 06:18:15;;;;;;;6.50;2.50;;;4.40;99.90;;;;;;5400691;26;20048;-87
2024/04/20 06:20:42;;;;;;;4.00;2.30;;;4.40;99.90;;;;;;5393398;26;20016;-85
2024/04/20 06:23:09;;;;;;;8.50;2.53;;;4.40;99.90;;;;;;5395345;26;20769;-85
2024/04/20 06:25:34;;;;;;;6.07;2.50;;;4.40;99.90;;;;;;5361751;26;20008;-85
2024/04/20 06:28:00;;;;;;;5.50;2.23;;;4.50;99.90;;;;;;5360638;26;20006;-86
2024/04/20 06:30:26;;;;;;;5.70;2.23;;;4.50;99.90;;;;;;5393474;26;20015;-84
2024/04/20 06:32:51;;;;;;;4.17;2.17;;;4.50;99.90;;;;;;5361060;26;20009;-85
2024/04/20 06:35:17;;;;;;;5.37;2.37;;;4.50;99.90;;;;;;5363783;26;20094;-84
2024/04/20 06:37:43;;;;;;;5.73;2.50;;;4.50;99.90;;;;;;5364783;26;20001;-85
2024/04/20 06:40:10;;;;;;;5.00;2.10;;;4.50;99.90;;;;;;5397768;26;20509;-84
2024/04/20 06:42:42;;;;;;;4.27;2.23;;;4.50;99.90;;;;;;5361259;26;20012;-84
2024/04/20 06:45:08;;;;;;;3.17;1.83;;;4.60;99.90;;;;;;5395424;26;20006;-85
2024/04/20 06:47:34;;;;;;;3.37;2.17;;;4.70;99.90;;;;;;5366116;26;20007;-85
2024/04/20 06:49:59;;;;;;;5.27;2.00;;;4.70;99.90;;;;;;5391943;26;20014;-86
2024/04/20 06:52:26;;;;;;;4.43;2.23;;;4.70;99.90;;;;;;5392836;26;20003;-85
2024/04/20 06:54:51;;;;;;;4.90;2.43;;;4.60;99.90;;;;;;5391583;26;20096;-86
2024/04/20 06:57:17;;;;;;;4.60;2.30;;;4.70;99.90;;;;;;5390239;26;20714;-86
2024/04/20 06:59:43;;;;;;;3.83;1.97;;;4.70;99.90;;;;;;5393227;26;20003;-89
2024/04/20 07:02:08;;;;;;;4.23;2.00;;;4.80;99.90;;;;;;5393536;26;20040;-86
2024/04/20 07:04:34;;;;;;;4.37;2.10;;;4.80;99.90;;;;;;5399317;26;21188;-85
2024/04/20 07:06:59;;;;;;;3.27;1.90;;;5.00;99.90;;;;;;5368802;26;20028;-88
2024/04/20 07:09:25;;;;;;;4.80;1.90;;;5.10;99.90;;;;;;5402599;26;20068;-87
2024/04/20 07:52:08;;;;;;;3.53;1.70;;;6.00;99.90;;;;;;6578336;21;20026;31
2024/04/20 08:17:05;;;;;;;5.77;1.73;;;6.10;99.90;;;;;;6329034;21;20022;-73
2024/04/20 12:46:35;;;;;;;3.27;1.30;;;6.90;99.90;;;;;;5321998;26;20022;-81
2024/04/20 12:49:07;;;;;;;2.30;1.60;;;7.00;99.90;;;;;;5286181;26;20017;-87
2024/04/20 12:51:34;;;;;;;3.40;1.67;;;7.00;99.90;;;;;;5292773;26;20004;-81
2024/04/20 12:56:54;;;;;;;3.30;1.60;;;6.90;99.90;;;;;;5267549;26;20014;-87
2024/04/20 12:59:24;;;;;;;4.17;1.80;;;6.80;99.90;;;;;;5286918;26;20010;-82
2024/04/20 13:01:56;;;;;;;2.43;1.63;;;6.80;99.90;;;;;;5287111;26;20006;-83
2024/04/20 13:04:24;;;;;;;4.03;1.40;;;6.90;99.90;;;;;;5287704;26;20009;-80
2024/04/20 13:09:48;;;;;;;2.25;1.30;;;6.90;99.90;;;;;;5270690;26;20060;-80
2024/04/20 13:12:17;;;;;;;2.73;1.43;;;6.80;99.90;;;;;;5283484;26;20741;-83
2024/04/20 13:14:46;;;;;;;3.43;1.40;;;6.70;99.90;;;;;;5286214;26;20083;-83
2024/04/20 13:17:15;;;;;;;2.10;1.57;;;6.70;99.90;;;;;;5253847;26;20455;-81
2024/04/20 13:19:58;;;;;;;2.37;1.70;;;6.70;99.90;;;;;;5284329;26;20013;-83
2024/04/20 13:22:24;;;;;;;2.97;1.27;;;6.70;99.90;;;;;;5286974;26;20016;-83
2024/04/20 13:24:54;;;;;;;2.73;1.27;;;6.80;99.90;;;;;;5260823;27;20034;-82
2024/04/20 13:27:25;;;;;;;1.60;1.30;;;6.90;99.90;;;;;;5284534;26;19998;-81
2024/04/20 13:30:07;;;;;;;2.40;1.27;;;7.00;99.90;;;;;;5283318;26;20009;-81
2024/04/20 13:32:37;;;;;;;1.53;1.10;;;7.10;99.90;;;;;;5284111;26;19997;-83
2024/04/20 13:35:03;;;;;;;2.57;1.30;;;7.20;99.90;;;;;;5285684;26;20828;-82
2024/04/20 13:37:37;;;;;;;1.87;1.40;;;7.20;99.90;;;;;;5285463;26;19997;-81
2024/04/20 13:40:05;;;;;;;2.58;1.50;;;7.40;99.90;;;;;;5252386;27;20465;-82
2024/04/20 13:42:34;;;;;;;3.30;1.57;;;7.50;99.90;;;;;;5257454;27;20002;-81
2024/04/20 13:45:09;;;;;;;1.97;1.43;;;7.60;99.90;;;;;;5252440;27;20096;-84
2024/04/20 13:47:34;;;;;;;4.50;1.40;;;7.80;99.90;;;;;;5294074;26;21748;-85
2024/04/20 13:52:53;;;;;;;3.10;1.20;;;8.50;99.90;;;;;;5291656;26;20001;-86
2024/04/20 15:37:37;;;;;;;4.40;1.30;;;6.50;99.90;;;;;;6577939;21;20008;31
2024/04/20 21:06:35;;;;;;;8.53;5.83;;;3.50;99.90;;;;;;5186395;27;19928;-82
2024/04/20 21:09:01;;;;;;;12.23;6.57;;;3.50;99.90;;;;;;5188341;27;21898;-83
2024/04/20 21:11:28;;;;;;;9.53;6.30;;;3.50;99.90;;;;;;5194366;27;20003;-83
2024/04/20 21:13:53;;;;;;;10.33;6.27;;;3.50;99.90;;;;;;5190119;27;20016;-83
2024/04/20 21:16:19;;;;;;;12.23;6.97;;;3.50;99.90;;;;;;5190842;27;20055;-82
2024/04/20 21:18:45;;;;;;;9.93;7.17;;;3.50;99.90;;;;;;5196548;27;20009;-82
2024/04/20 21:21:15;;;;;;;11.03;6.67;;;3.50;99.90;;;;;;5197033;27;20027;-82
2024/04/20 21:23:45;;;;;;;11.20;7.70;;;3.50;99.90;;;;;;5198442;27;20031;-82
2024/04/20 21:26:16;;;;;;;12.20;7.90;;;3.40;99.90;;;;;;5190265;27;20142;-82
2024/04/20 21:28:43;;;;;;;15.43;9.20;;;3.40;99.90;;;;;;5194078;27;20007;-82
2024/04/20 21:31:09;;;;;;;11.90;6.97;;;3.40;99.90;;;;;;5195005;27;20022;-82
2024/04/20 21:33:37;;;;;;;12.30;7.27;;;3.40;99.90;;;;;;5194801;27;20012;-82
2024/04/20 21:36:03;;;;;;;10.43;6.57;;;3.40;99.90;;;;;;5194135;27;20027;-83
2024/04/20 21:38:28;;;;;;;12.27;8.37;;;3.40;99.90;;;;;;5199397;27;20484;-82
2024/04/20 21:40:54;;;;;;;12.70;8.47;;;3.40;99.90;;;;;;5196081;27;20020;-82
2024/04/20 21:43:19;;;;;;;12.17;7.70;;;3.40;99.90;;;;;;5197829;27;20011;-82
2024/04/20 21:45:53;;;;;;;13.37;7.33;;;3.40;99.90;;;;;;5196355;27;20012;-83
2024/04/20 21:48:19;;;;;;;12.73;8.70;;;3.40;99.90;;;;;;5196320;27;20026;-82
2024/04/20 21:50:46;;;;;;;11.77;7.17;;;3.40;99.90;;;;;;5198318;27;20012;-82
2024/04/20 21:53:15;;;;;;;9.37;6.00;;;3.40;99.90;;;;;;5194753;27;21373;-82
2024/04/20 21:55:40;;;;;;;9.53;6.20;;;3.30;99.90;;;;;;5193766;27;20024;-82
2024/04/20 21:58:06;;;;;;;9.60;6.93;;;3.30;99.90;;;;;;5195855;27;20007;-81
2024/04/20 22:00:32;;;;;;;10.53;6.87;;;3.30;99.90;;;;;;5195409;27;20016;-82
2024/04/20 22:02:57;;;;;;;9.47;6.87;;;3.30;99.90;;;;;;5196424;27;20023;-83
2024/04/20 22:05:23;;;;;;;7.50;5.33;;;3.30;99.90;;;;;;5194929;27;20016;-82
2024/04/20 22:07:49;;;;;;;7.90;5.70;;;3.30;99.90;;;;;;5193506;27;20027;-83
2024/04/20 22:10:14;;;;;;;8.67;5.80;;;3.20;99.90;;;;;;5193266;27;20016;-82
2024/04/20 22:12:42;;;;;;;7.67;6.07;;;3.20;99.90;;;;;;5193337;27;20024;-82
2024/04/20 22:15:07;;;;;;;9.23;5.70;;;3.20;99.90;;;;;;5183719;27;20004;-82
2024/04/20 22:17:33;;;;;;;7.57;5.27;;;3.20;99.90;;;;;;5194839;27;20029;-83
2024/04/20 22:19:58;;;;;;;8.90;5.00;;;3.10;99.90;;;;;;5197221;27;20027;-81
2024/04/20 22:22:24;;;;;;;9.63;5.23;;;3.10;99.90;;;;;;5198801;27;20008;-82
2024/04/20 22:24:49;;;;;;;7.97;5.23;;;3.10;99.90;;;;;;5196952;27;20055;-83
2024/04/20 22:27:15;;;;;;;7.33;4.83;;;3.00;99.90;;;;;;5199021;27;20055;-82
2024/04/20 22:29:41;;;;;;;10.67;5.17;;;3.00;99.90;;;;;;5196137;27;20003;-83
2024/04/20 22:32:06;;;;;;;11.27;5.10;;;3.00;99.90;;;;;;5168372;27;20023;-82
2024/04/20 22:34:32;;;;;;;10.93;4.97;;;3.00;99.90;;;;;;5194899;27;20011;-82
2024/04/20 22:36:57;;;;;;;8.47;5.00;;;2.90;99.90;;;;;;5165915;27;20055;-83
2024/04/20 22:39:23;;;;;;;10.60;5.07;;;2.90;99.90;;;;;;5197835;27;20005;-82
2024/04/20 22:41:48;;;;;;;8.37;5.63;;;2.90;99.90;;;;;;5198558;27;20018;-82
2024/04/20 22:44:14;;;;;;;7.97;5.43;;;3.00;99.90;;;;;;5198954;27;21256;-82
2024/04/20 22:46:41;;;;;;;7.27;5.60;;;3.00;99.90;;;;;;5195845;27;20019;-82
2024/04/20 22:49:07;;;;;;;6.93;5.23;;;3.00;99.90;;;;;;5196584;27;20012;-82
2024/04/20 22:51:32;;;;;;;10.90;5.73;;;3.00;99.90;;;;;;5198917;27;20069;-82
2024/04/20 22:53:58;;;;;;;10.23;4.83;;;3.00;99.90;;;;;;5198112;27;20014;-82
2024/04/20 22:56:25;;;;;;;9.53;5.80;;;3.10;99.90;;;;;;5198075;27;20178;-82
2024/04/20 22:58:50;;;;;;;6.73;5.03;;;3.10;99.90;;;;;;5198847;27;20011;-83
2024/04/20 23:01:16;;;;;;;7.67;5.50;;;3.20;99.90;;;;;;5196290;27;20004;-82
2024/04/20 23:03:41;;;;;;;7.33;5.20;;;3.20;99.90;;;;;;5200746;27;20064;-82
2024/04/20 23:06:07;;;;;;;7.47;5.10;;;3.20;99.90;;;;;;5204092;27;20004;-81
2024/04/20 23:08:32;;;;;;;8.70;4.83;;;3.20;99.90;;;;;;5204450;27;20007;-81
2024/04/20 23:10:58;;;;;;;8.77;4.97;;;3.30;99.90;;;;;;5205136;27;20011;-82
2024/04/20 23:13:23;;;;;;;6.13;4.57;;;3.30;99.90;;;;;;5205161;27;19999;-82
2024/04/20 23:15:49;;;;;;;6.27;4.67;;;3.30;99.90;;;;;;5202493;27;20007;-82
2024/04/20 23:18:14;;;;;;;8.20;5.20;;;3.40;99.90;;;;;;5204631;27;20038;-83
2024/04/20 23:20:40;;;;;;;9.27;4.63;;;3.40;99.90;;;;;;5204071;27;20004;-83
2024/04/20 23:23:06;;;;;;;6.07;4.20;;;3.40;99.90;;;;;;5205349;27;20095;-83
2024/04/20 23:25:34;;;;;;;7.60;4.40;;;3.40;99.90;;;;;;5205214;27;20012;-83
2024/04/20 23:27:59;;;;;;;6.50;4.30;;;3.40;99.90;;;;;;5205215;27;20536;-82
2024/04/20 23:30:25;;;;;;;6.33;4.43;;;3.40;99.90;;;;;;5204258;27;20020;-82
2024/04/20 23:32:50;;;;;;;6.73;4.07;;;3.50;99.90;;;;;;5204174;27;20011;-82
2024/04/20 23:35:16;;;;;;;7.90;4.90;;;3.50;99.90;;;;;;5203629;27;20004;-83
2024/04/20 23:37:41;;;;;;;6.63;4.30;;;3.50;99.90;;;;;;5205251;27;20011;-82
2024/04/20 23:40:08;;;;;;;5.97;4.23;;;3.50;99.90;;;;;;5203866;27;20020;-82
2024/04/20 23:42:33;;;;;;;6.53;4.00;;;3.50;99.90;;;;;;5175908;27;20008;-82
2024/04/20 23:44:59;;;;;;;7.53;4.40;;;3.50;99.90;;;;;;5205030;27;20027;-82
2024/04/20 23:47:24;;;;;;;6.47;4.67;;;3.50;99.90;;;;;;5203381;27;20015;-83
2024/04/20 23:49:50;;;;;;;7.27;4.90;;;3.50;99.90;;;;;;5204682;27;20031;-82
2024/04/20 23:52:15;;;;;;;6.70;4.60;;;3.40;99.90;;;;;;5202667;27;20043;-82
2024/04/20 23:54:41;;;;;;;6.70;4.70;;;3.50;99.90;;;;;;5205407;27;20024;-82
2024/04/20 23:57:06;;;;;;;6.80;4.03;;;3.50;99.90;;;;;;5203955;27;20011;-83
2024/04/20 23:59:32;;;;;;;6.43;4.40;;;3.40;99.90;;;;;;5176735;27;20007;-83
